首页
METAR-TAF:

METAR-TAF

机场 :

Lawrence J. Timmerman Airport

密尔沃基, 威斯康辛州, 美国

纬度: 43-07N, 经度: 088-02W, 海拔: 227米

当前天气观测

该预报发布于11分钟前的06:15 UTC
静风
温度 0°C
湿度 93%
气压 1008 hPa
能見度: 2.8公里
阴天层高于300英尺
小雨

METAR: KMWC 250615Z AUTO 00000KT 1 3/4SM -RA OVC003 00/M01 A2976 RMK AO2

时间: 00:26 (06:26 UTC)


TAF: 丢失

超过4000个机场的气象观测和天气预报(METAR&TAF报告)。

可查询的气象台以黄色和红色小点在地图上表示。

将鼠标移到小点上方,可查看气象台名称。

然后点击查看天气观测和预报。

如需切换地图:点击带黑十字的绿色按钮放大地图;点击带横线的绿色按钮缩小地图;或者点击绿色箭头查看邻近地区的地图。


METAR-TAF: